Anatone, WA

11:43 AM PDT on September 16, 2014 (GMT -0700)
Pullman-Moscow Regional | Change Station
CLOSE
Current Station
Airport
Location: Pullman,
Elevation: 2552 ft
Nearby Weather Stations

Elev 2552 ft 46.74 °N, 117.12 °W | Updated 50 minutes ago

Clear
Clear
80 °F
Feels Like 80 °F
N
7
Wind Variable Wind from ESE

Today
High -- | Low -- °F
--% Chance of Precip.
Yesterday
High -- | Low -- °F
Precip. -- in
6:27 AM 6:57 PM
Last Quarter, 43% visible
Pressure 29.88 in
Visibility 4.0 miles
Clouds Few 11000 ft
Dew Point 35 °F
Humidity 20%
Rainfall 0.00 in
Snow Depth 0 in , 0 in , 0 in
UV 5 out of 12
Pollen 6.90 out of 12
Air Quality Not available.
Flu Activity Not available.
METAR KPUW 161753Z AUTO 11006KT 4SM HZ FEW110 27/02 A2992 RMK AO2 SLP119 T02670017 10267 20161 50001

More Conditions Fewer Conditions

Pressure 29.88 in
Visibility 4.0 miles
Clouds Few 11000 ft
Dew Point 35 °F
Humidity 20%
Rainfall 0.00 in
Snow Depth 0 in , 0 in , 0 in
UV 5 out of 12
Pollen 6.90 out of 12
Air Quality Not available.
Flu Activity Not available.
METAR KPUW 161753Z AUTO 11006KT 4SM HZ FEW110 27/02 A2992 RMK AO2 SLP119 T02670017 10267 20161 50001

More Conditions Fewer Conditions

10-Day Weather Forecast

Almanac

Astronomy

Sep. 16, 2014 Rise Set
Actual Time 6:27 AM PDT 6:57 PM PDT
Civil Twilight 5:57 AM PDT 7:27 PM PDT
Nautical Twilight 5:21 AM PDT 8:03 PM PDT
Astronomical Twilight 4:45 AM PDT 8:39 PM PDT
Moon No Moon Rise 2:39 PM PDT
Length of Visible Light 13h 29m
Length of Day
12h 29m
Tomorrow will be 3m 13s shorter.
Last Quarter, 43% of the Moon is Illuminated
Today
Last Quarter
Sep 24
New
Oct 1
First Quarter
Oct 8
Full
Oct 15
Last Quarter

Today's Extremes

State Highs State Lows

Community

WunderPhotos

Upload Photos

1,753,856 photos uploaded!

Nearby

Snow Depth

Station Depth Elevation
Morse Lake 0 in 5400 ft
Sasse Ridge 0 in 4200 ft
Huckleberry Creek 0 in 2000 ft
Rainy Pass 0 in 4780 ft
Surprise Lakes 0 in 4250 ft

Earthquake Activity

City Distance Mag. Time & Date
No recent earthquake activity has been reported nearby.
Minimum magnitude displayed is 2.5.

Coastal Water Temperatures

Place Temperature
No Stations Reporting

Nearby Weather Stations